Terminal Aerodrome Forecast
Issued by NWS

Home | Current Version | Previous Version | Graphics & Text | Print | Product List | Glossary On
Versions: 1 2 3 4 5 6 7 8 9 10 11 12 13 14 15 16 17 18 19 20 21 22 23 24 25 26 27 28
263
FTUS45 KGGW 240523
TAFOLF
TAF
KOLF 240523Z 2406/2506 27013KT P6SM SCT070
     FM240900 27014KT P6SM BKN030
     FM241600 30025G35KT P6SM BKN020
     FM242000 31019G27KT P6SM BKN035
     FM250300 33007KT P6SM BKN060=

USA.gov is the U.S. government's official web portal to all federal, state and local government web resources and services.